Time;durP1;ratioP1;P1;durP2;ratioP2;P2;SDS_P1;SDS_P2;PMS_P1;PMS_P2;Temp;Humidity;BMP_temperature;BMP_pressure;BME280_temperature;BME280_humidity;BME280_pressure;Samples;Min_cycle;Max_cycle;Signal;HPM_P1;HPM_P2
2023/05/13 00:01:41;;;;;;;;;3.67;3.67;;;;;16.02;84.27;-19637.84;4988015;28;45587;-84
2023/05/13 00:04:07;;;;;;;;;3.67;3.33;;;;;16.00;84.18;-19637.31;4997944;28;45858;-83
2023/05/13 00:06:33;;;;;;;;;6.67;4.00;;;;;16.00;84.27;-19637.31;4991530;28;45410;-84
2023/05/13 00:08:59;;;;;;;;;6.67;6.67;;;;;16.02;84.41;-19637.97;4995163;28;46200;-84
2023/05/13 00:11:25;;;;;;;;;5.00;4.67;;;;;16.02;84.60;-19637.84;4995491;28;45592;-84
2023/05/13 00:13:50;;;;;;;;;5.00;3.67;;;;;15.83;84.21;-19633.00;4996890;28;45367;-84
2023/05/13 00:16:15;;;;;;;;;5.00;5.00;;;;;15.73;84.24;-19630.34;4996984;28;45387;-84
2023/05/13 00:18:41;;;;;;;;;4.33;4.33;;;;;15.85;84.45;-19633.28;4996474;28;46145;-84
2023/05/13 00:21:06;;;;;;;;;6.67;3.67;;;;;16.01;84.81;-19637.72;4994737;28;45329;-84
2023/05/13 00:23:32;;;;;;;;;3.00;3.00;;;;;15.99;84.90;-19637.16;4996597;28;45594;-84
2023/05/13 00:25:58;;;;;;;;;6.67;4.00;;;;;15.99;84.46;-19637.03;4996917;28;45474;-84
2023/05/13 00:28:24;;;;;;;;;4.67;4.67;;;;;15.96;84.89;-19636.34;5005869;28;46172;-84
2023/05/13 00:30:49;;;;;;;;;4.00;4.00;;;;;15.95;84.66;-19636.09;4997634;28;45461;-84
2023/05/13 00:33:14;;;;;;;;;7.33;7.00;;;;;15.87;84.60;-19633.81;4963727;28;45581;-84
2023/05/13 00:35:40;;;;;;;;;6.67;5.00;;;;;15.85;85.03;-19633.28;4996891;28;45434;-84
2023/05/13 00:38:06;;;;;;;;;7.33;5.00;;;;;15.75;84.73;-19630.88;4984861;28;46209;-84
2023/05/13 00:40:35;;;;;;;;;6.33;6.33;;;;;15.62;85.24;-19627.50;4987256;28;45478;-84
2023/05/13 00:43:00;;;;;;;;;4.33;4.33;;;;;15.80;85.27;-19632.22;4990917;28;45617;-84
2023/05/13 00:45:26;;;;;;;;;6.67;5.67;;;;;15.67;84.90;-19628.72;4992887;28;45563;-84
2023/05/13 00:47:51;;;;;;;;;5.00;4.33;;;;;15.72;85.18;-19630.06;4980407;28;46993;-84
2023/05/13 00:50:17;;;;;;;;;7.33;6.33;;;;;15.82;85.36;-19632.75;4982653;28;45363;-84
2023/05/13 00:52:43;;;;;;;;;6.33;5.00;;;;;15.50;85.17;-19624.28;4996714;28;45701;-84
2023/05/13 00:55:09;;;;;;;;;4.33;4.33;;;;;15.78;85.31;-19631.53;4994179;28;45605;-85
2023/05/13 00:57:36;;;;;;;;;7.00;6.33;;;;;15.56;85.09;-19625.91;4993624;28;46459;-84
2023/05/13 01:00:02;;;;;;;;;6.00;5.00;;;;;15.73;85.04;-19630.34;4995112;28;45521;-84
2023/05/13 05:02:28;;;;;;;;;34.00;31.00;;;;;14.56;89.95;-6210.94;5036708;23;45478;-85
2023/05/13 05:05:04;;;;;;;;;38.00;32.00;;;;;14.87;89.95;-5823.25;4988720;28;45771;-85
2023/05/13 05:07:30;;;;;;;;;37.33;33.33;;;;;15.19;90.05;-5683.50;4997056;28;45370;-85
2023/05/13 05:09:56;;;;;;;;;33.00;28.67;;;;;15.22;89.88;-5150.34;4995232;28;46299;-85
2023/05/13 05:12:21;;;;;;;;;30.67;26.67;;;;;15.24;89.89;-5150.41;4995843;28;45600;-85
2023/05/13 05:14:47;;;;;;;;;33.67;29.67;;;;;15.07;90.21;-4509.56;4995671;28;45386;-85
2023/05/13 05:17:12;;;;;;;;;37.00;28.67;;;;;14.68;89.63;-4944.97;4996385;28;45447;-86
2023/05/13 05:19:37;;;;;;;;;31.67;31.67;;;;;14.35;89.86;-4320.09;4996299;28;49055;-85
2023/05/13 05:22:05;;;;;;;;;34.00;32.33;;;;;14.72;89.59;-5198.44;4996649;28;45513;-85
2023/05/13 05:24:31;;;;;;;;;32.67;30.67;;;;;14.95;89.94;-4843.81;4995323;28;45474;-85
2023/05/13 05:26:56;;;;;;;;;29.00;26.00;;;;;14.52;89.77;-5881.81;5005628;28;45559;-85
2023/05/13 05:29:22;;;;;;;;;30.67;28.00;;;;;14.50;89.99;-5137.66;4996426;28;46239;-85
2023/05/13 05:31:47;;;;;;;;;35.00;30.00;;;;;14.68;90.14;-5506.47;5010146;28;45546;-85
2023/05/13 05:34:13;;;;;;;;;32.33;26.67;;;;;14.35;90.06;-5165.94;4991822;28;45441;-85
2023/05/13 05:36:41;;;;;;;;;33.00;29.67;;;;;14.72;89.89;-5402.16;4994577;28;45628;-85
2023/05/13 05:39:07;;;;;;;;;32.67;29.33;;;;;14.73;89.99;-5036.53;4996681;28;46342;-85
2023/05/13 05:41:32;;;;;;;;;29.33;25.33;;;;;15.26;90.36;-5106.03;4981810;28;45565;-85
2023/05/13 05:43:57;;;;;;;;;34.67;26.33;;;;;15.35;89.82;-4562.47;4989405;28;45566;-85
2023/05/13 05:46:23;;;;;;;;;29.67;27.33;;;;;15.28;90.21;-4368.81;4995811;28;45450;-85
2023/05/13 05:48:49;;;;;;;;;30.33;26.67;;;;;14.93;89.91;-5217.41;4996700;28;45585;-85
2023/05/13 05:51:14;;;;;;;;;30.00;28.00;;;;;14.90;90.02;-5865.16;4995781;28;45387;-85
2023/05/13 05:57:55;;;;;;;;;29.33;22.67;;;;;15.41;89.81;-8566.94;4989699;28;45575;-85
2023/05/13 06:00:20;;;;;;;;;30.67;26.33;;;;;15.02;89.63;-9743.53;4983909;28;47169;-85
2023/05/13 06:06:07;;;;;;;;;32.67;29.33;;;;;14.41;89.40;-9332.97;4994362;28;45626;-86
2023/05/13 06:09:20;;;;;;;;;29.00;28.00;;;;;15.47;89.89;-8039.63;4995492;28;45574;-86
2023/05/13 06:11:45;;;;;;;;;33.33;26.67;;;;;15.15;89.59;-9217.50;4991080;28;46498;-87
2023/05/13 06:14:10;;;;;;;;;37.33;28.00;;;;;15.54;89.99;-9176.88;4980692;28;55136;-86
2023/05/13 06:16:36;;;;;;;;;31.67;25.33;;;;;15.18;89.99;-8862.72;4994065;28;46882;-86
2023/05/13 06:19:01;;;;;;;;;27.00;27.00;;;;;15.36;89.52;-9196.00;4991601;28;45849;-85
2023/05/13 06:21:27;;;;;;;;;30.00;28.67;;;;;15.66;90.05;-8992.41;4993969;28;46113;-86
2023/05/13 06:24:02;;;;;;;;;28.67;27.67;;;;;15.61;90.20;-8545.13;4976340;28;45467;-86
2023/05/13 06:26:45;;;;;;;;;31.67;29.00;;;;;14.71;89.55;-8761.91;4993635;28;45406;-85
2023/05/13 06:29:19;;;;;;;;;33.67;29.00;;;;;15.39;90.07;-9653.41;4989972;28;45981;-86
2023/05/13 06:31:48;;;;;;;;;30.33;25.33;;;;;15.61;89.95;-9402.25;4991571;28;45568;-87
2023/05/13 06:34:16;;;;;;;;;28.67;28.33;;;;;15.57;89.95;-9404.41;4993411;28;45442;-84
2023/05/13 06:36:42;;;;;;;;;32.67;29.00;;;;;15.35;90.00;-9833.19;4993463;28;45493;-85
2023/05/13 06:39:09;;;;;;;;;29.33;29.33;;;;;15.34;89.62;-9955.75;5484656;22;45541;-85
2023/05/13 06:41:59;;;;;;;;;30.00;26.00;;;;;15.90;90.27;-8694.00;5021581;28;45686;-89
2023/05/13 06:44:28;;;;;;;;;31.00;26.33;;;;;15.61;90.13;-9564.25;5007916;28;45462;-89
2023/05/13 06:46:55;;;;;;;;;33.00;29.67;;;;;15.06;89.93;-9650.00;5007487;28;45512;-87
2023/05/13 06:49:20;;;;;;;;;36.33;29.67;;;;;15.63;89.93;-9687.19;5012896;28;45679;-85
2023/05/13 06:51:47;;;;;;;;;31.33;28.67;;;;;15.09;90.18;-9793.81;5013651;28;45761;-86
2023/05/13 06:54:12;;;;;;;;;28.33;23.67;;;;;15.58;89.97;-10042.00;5014623;28;45470;-84
2023/05/13 06:59:12;;;;;;;;;30.33;29.00;;;;;15.53;89.79;-11866.69;4998463;22;58446;-87
2023/05/13 07:01:37;;;;;;;;;31.33;24.67;;;;;15.52;89.78;-13711.91;4993225;28;46257;-86
2023/05/13 07:04:06;;;;;;;;;34.33;29.67;;;;;15.18;89.37;-14856.19;4992799;28;45581;-86
2023/05/13 07:06:31;;;;;;;;;36.33;29.67;;;;;15.54;89.61;-16007.91;5005373;28;45601;-87
2023/05/13 07:08:57;;;;;;;;;27.00;23.33;;;;;15.60;88.91;-17174.84;4974618;28;45685;-86
2023/05/13 07:11:23;;;;;;;;;25.00;23.00;;;;;15.93;89.20;-18157.59;4992600;28;46233;-88
2023/05/13 07:13:48;;;;;;;;;29.00;29.00;;;;;16.10;88.79;-18685.94;4992902;28;45613;-87
2023/05/13 07:16:13;;;;;;;;;28.00;25.00;;;;;16.16;88.75;-19047.44;4992246;28;45580;-86
2023/05/13 07:18:39;;;;;;;;;28.67;24.33;;;;;15.58;88.44;-19556.72;4995156;28;45387;-87
2023/05/13 07:21:05;;;;;;;;;29.00;27.00;;;;;16.20;88.28;-19642.66;4993263;28;46489;-87
2023/05/13 07:23:31;;;;;;;;;36.33;28.67;;;;;16.39;88.46;-19647.50;4993937;28;46439;-87
2023/05/13 07:25:56;;;;;;;;;26.33;23.67;;;;;15.73;88.41;-19630.19;4992283;28;45509;-87
2023/05/13 07:28:22;;;;;;;;;33.67;30.67;;;;;16.14;88.55;-19641.06;4991194;28;45427;-86
2023/05/13 07:30:47;;;;;;;;;31.67;26.00;;;;;15.73;88.40;-19630.19;4991088;28;46835;-86
2023/05/13 07:33:12;;;;;;;;;29.33;26.67;;;;;15.90;88.25;-19634.63;4991018;28;45893;-87
2023/05/13 07:35:38;;;;;;;;;23.33;22.00;;;;;16.54;88.09;-19651.38;4993053;28;45517;-84
2023/05/13 07:38:03;;;;;;;;;32.33;28.33;;;;;15.94;88.08;-19635.81;4992515;28;45549;-84
2023/05/13 07:40:29;;;;;;;;;30.67;30.00;;;;;16.14;87.75;-19640.91;4993148;28;45517;-83
2023/05/13 07:42:57;;;;;;;;;35.00;30.67;;;;;15.76;88.18;-19631.13;4988995;28;45815;-83
2023/05/13 07:45:38;;;;;;;;;33.00;30.33;;;;;16.72;87.94;-19656.19;4993764;28;45443;-83
2023/05/13 07:48:04;;;;;;;;;32.00;26.67;;;;;16.81;87.73;-19658.59;4993582;28;45658;-83
2023/05/13 07:50:30;;;;;;;;;30.67;26.67;;;;;16.67;87.93;-19654.84;4992347;28;47376;-83
2023/05/13 07:52:56;;;;;;;;;33.00;29.00;;;;;16.80;88.08;-19658.22;4991911;28;45518;-84
2023/05/13 07:55:21;;;;;;;;;27.33;23.00;;;;;17.01;88.05;-19663.69;4993607;28;45457;-84
2023/05/13 07:57:47;;;;;;;;;28.33;24.33;;;;;17.09;87.56;-19665.84;4994507;28;45538;-83
2023/05/13 08:00:14;;;;;;;;;26.33;24.67;;;;;16.84;87.80;-19659.28;4996137;28;46139;-83
2023/05/13 08:02:41;;;;;;;;;37.00;32.00;;;;;17.23;87.75;-19669.44;4996735;28;45648;-83
2023/05/13 08:05:07;;;;;;;;;33.67;30.33;;;;;16.81;87.49;-19658.47;4996389;28;45509;-84
2023/05/13 08:07:33;;;;;;;;;32.33;29.67;;;;;17.23;87.81;-19669.59;4997038;28;45603;-83
2023/05/13 08:09:58;;;;;;;;;36.67;29.33;;;;;17.24;87.50;-19669.84;4990674;28;46359;-83
2023/05/13 08:12:23;;;;;;;;;32.33;27.33;;;;;16.95;87.12;-19662.09;4991436;28;45465;-84
2023/05/13 08:15:04;;;;;;;;;35.33;33.33;;;;;16.79;86.54;-19657.94;4995343;28;45525;-83
2023/05/13 08:17:30;;;;;;;;;34.33;32.33;;;;;17.51;86.88;-19676.81;4995727;28;45610;-83
2023/05/13 08:19:55;;;;;;;;;33.67;29.33;;;;;17.54;86.90;-19677.47;4995802;28;46589;-83
2023/05/13 08:22:20;;;;;;;;;33.33;29.33;;;;;17.26;86.79;-19670.38;4996611;28;45676;-84
2023/05/13 08:24:46;;;;;;;;;34.00;31.33;;;;;17.60;86.70;-19679.22;4995611;28;45390;-83
2023/05/13 08:27:11;;;;;;;;;36.00;28.67;;;;;17.65;86.62;-19680.56;4996184;28;45486;-84
2023/05/13 08:29:37;;;;;;;;;36.67;31.33;;;;;17.64;86.31;-19680.28;4987424;28;46591;-84
2023/05/13 08:32:02;;;;;;;;;36.00;30.33;;;;;17.75;85.78;-19683.09;4997346;28;45573;-83
2023/05/13 08:34:28;;;;;;;;;32.33;27.67;;;;;17.63;86.04;-19680.03;5002961;28;45901;-83
2023/05/13 08:36:53;;;;;;;;;34.00;30.67;;;;;17.60;85.52;-19679.22;4994230;28;45593;-83
2023/05/13 08:39:18;;;;;;;;;32.67;32.33;;;;;17.77;85.44;-19683.50;4996359;28;47417;-83
2023/05/13 08:41:45;;;;;;;;;33.33;27.67;;;;;17.43;85.28;-19674.66;4986599;28;45458;-83
2023/05/13 08:44:12;;;;;;;;;33.33;26.33;;;;;17.76;85.83;-19683.38;4997067;28;45447;-83
2023/05/13 08:46:40;;;;;;;;;33.00;29.33;;;;;17.68;85.30;-19681.34;4996881;28;45498;-82
2023/05/13 08:49:06;;;;;;;;;33.33;29.67;;;;;17.64;85.30;-19680.28;4995483;28;45488;-83
2023/05/13 08:51:32;;;;;;;;;36.00;33.00;;;;;17.63;85.72;-19679.88;4996251;28;45413;-83
2023/05/13 08:53:59;;;;;;;;;33.33;31.33;;;;;17.59;85.76;-19678.94;4995922;28;45539;-82
2023/05/13 08:56:27;;;;;;;;;34.67;28.67;;;;;17.72;85.60;-19682.28;4993819;28;45375;-87
2023/05/13 08:58:53;;;;;;;;;34.33;31.33;;;;;17.73;85.22;-19682.56;4918817;28;46169;-85
2023/05/13 09:01:19;;;;;;;;;35.67;30.67;;;;;17.80;84.89;-19684.44;4897719;28;45931;-82
2023/05/13 09:03:57;;;;;;;;;34.33;26.33;;;;;17.74;84.64;-19682.81;4901064;28;45697;-85
2023/05/13 09:06:22;;;;;;;;;32.00;28.00;;;;;17.71;84.78;-19682.16;4883303;28;45515;-83
2023/05/13 09:08:47;;;;;;;;;34.67;32.00;;;;;17.70;84.32;-19681.75;4901182;28;58922;-82
2023/05/13 09:11:13;;;;;;;;;37.00;32.00;;;;;17.69;84.48;-19681.63;4886020;29;45484;-82
2023/05/13 09:13:41;;;;;;;;;28.33;25.33;;;;;17.86;84.47;-19686.03;4899619;28;45455;-82
2023/05/13 09:16:06;;;;;;;;;38.00;32.00;;;;;17.84;84.14;-19685.38;4900740;28;45491;-81
2023/05/13 09:18:32;;;;;;;;;26.00;25.67;;;;;17.70;84.18;-19681.75;4896896;28;45826;-83
2023/05/13 09:21:21;;;;;;;;;35.00;29.67;;;;;17.78;84.51;-19683.78;4961205;28;45728;-82
2023/05/13 09:23:46;;;;;;;;;28.33;25.67;;;;;17.85;84.75;-19685.66;4900137;28;45618;-83
2023/05/13 09:26:27;;;;;;;;;40.00;32.33;;;;;17.87;84.37;-19686.31;4919028;28;45442;-83
2023/05/13 09:29:18;;;;;;;;;38.33;33.00;;;;;17.93;84.32;-19687.91;4897051;28;46878;-83
2023/05/13 09:31:48;;;;;;;;;33.67;29.00;;;;;17.92;84.10;-19687.66;4901591;28;45517;-84
2023/05/13 09:34:21;;;;;;;;;32.33;29.67;;;;;17.84;84.18;-19685.38;4912024;28;45771;-82
2023/05/13 09:36:54;;;;;;;;;37.67;32.00;;;;;17.91;84.29;-19687.25;4907769;28;45562;-84
2023/05/13 09:39:20;;;;;;;;;31.67;27.00;;;;;17.93;83.78;-19687.78;4899330;28;47137;-84
2023/05/13 09:41:46;;;;;;;;;34.33;30.33;;;;;18.07;84.05;-19691.41;4891460;28;45549;-83
2023/05/13 09:44:12;;;;;;;;;26.33;24.33;;;;;18.07;84.32;-19691.53;4904856;28;45455;-84
2023/05/13 09:46:37;;;;;;;;;31.33;27.00;;;;;18.22;84.47;-19695.41;4907420;28;45747;-84
2023/05/13 09:49:03;;;;;;;;;35.67;29.00;;;;;18.52;84.42;-19703.28;4891101;28;46141;-83
2023/05/13 09:51:30;;;;;;;;;26.67;26.67;;;;;18.85;84.21;-19711.72;4900845;28;45479;-84
2023/05/13 09:54:32;;;;;;;;;25.67;23.67;;;;;19.12;83.55;-19718.78;4957645;28;46903;-85
2023/05/13 09:57:01;;;;;;;;;27.67;26.00;;;;;19.28;82.92;-19722.94;4903132;28;45518;-82
2023/05/13 09:59:26;;;;;;;;;36.67;30.00;;;;;19.40;82.88;-19726.25;4995189;28;47021;-82
2023/05/13 10:01:54;;;;;;;;;42.33;35.33;;;;;19.50;82.34;-19728.81;4990827;28;45553;-82
2023/05/13 10:04:26;;;;;;;;;36.67;31.00;;;;;19.58;81.95;-19730.94;4993372;28;45471;-83
2023/05/13 10:06:52;;;;;;;;;33.33;30.00;;;;;19.46;81.84;-19727.72;4976844;28;45570;-83
2023/05/13 10:09:21;;;;;;;;;33.00;31.33;;;;;19.86;81.63;-19738.00;4992570;28;47855;-84
2023/05/13 10:11:47;;;;;;;;;38.33;33.67;;;;;20.16;81.70;-19745.88;4992941;28;45667;-84
2023/05/13 10:14:13;;;;;;;;;36.67;28.00;;;;;20.32;80.71;-19750.16;5007737;28;45599;-84
2023/05/13 10:16:40;;;;;;;;;37.33;33.33;;;;;20.66;80.27;-19759.06;4994841;28;45479;-84
2023/05/13 10:19:06;;;;;;;;;47.67;39.00;;;;;21.36;79.67;-19777.06;4979522;28;47442;-85
2023/05/13 10:21:32;;;;;;;;;33.33;31.67;;;;;21.97;77.95;-19792.91;4994248;28;45466;-85
2023/05/13 10:23:58;;;;;;;;;31.33;30.33;;;;;22.39;77.38;-19803.81;4995585;28;45368;-84
2023/05/13 10:26:23;;;;;;;;;31.33;30.00;;;;;22.75;75.10;-19813.25;4996411;28;45687;-85
2023/05/13 10:28:50;;;;;;;;;30.67;25.67;;;;;23.16;74.57;-19823.88;4993777;28;45883;-85
2023/05/13 10:31:16;;;;;;;;;29.00;23.33;;;;;23.29;73.68;-19827.19;4991738;28;45498;-85
2023/05/13 10:33:42;;;;;;;;;27.33;24.67;;;;;23.31;72.36;-19827.88;4994029;28;45400;-85
2023/05/13 10:36:26;;;;;;;;;31.67;26.33;;;;;23.26;72.85;-19826.41;5002219;28;45810;-84
2023/05/13 10:39:42;;;;;;;;;32.33;31.00;;;;;23.15;72.35;-19823.63;4990916;28;47493;-85
2023/05/13 10:42:39;;;;;;;;;36.00;31.33;;;;;23.01;71.87;-19819.91;4907789;28;46759;-84
2023/05/13 10:45:06;;;;;;;;;31.67;30.00;;;;;22.89;72.54;-19816.97;4909977;28;46766;-84
2023/05/13 10:47:32;;;;;;;;;38.33;32.00;;;;;22.38;71.20;-19803.69;4917866;28;45845;-84
2023/05/13 10:49:57;;;;;;;;;29.67;22.67;;;;;22.96;71.68;-19818.69;4919206;28;46256;-83
2023/05/13 10:52:39;;;;;;;;;26.67;25.00;;;;;22.88;71.20;-19816.56;4913701;28;45584;-84
2023/05/13 10:55:15;;;;;;;;;31.33;21.67;;;;;23.30;70.76;-19827.59;4925366;28;45604;-84
2023/05/13 10:57:40;;;;;;;;;46.33;37.00;;;;;24.19;69.47;-19850.56;4930335;28;45661;-84
2023/05/13 11:00:16;;;;;;;;;37.00;30.67;;;;;24.80;69.87;-19866.47;4912620;28;45984;-84
2023/05/13 11:02:41;;;;;;;;;35.67;30.67;;;;;25.26;67.84;-19878.25;4912279;28;45467;-86
2023/05/13 11:05:07;;;;;;;;;28.00;26.67;;;;;25.80;65.88;-19892.16;4914248;28;45500;-87
2023/05/13 11:07:38;;;;;;;;;25.00;23.00;;;;;26.40;64.85;-19907.63;4920571;28;45686;-84
2023/05/13 11:10:22;;;;;;;;;28.33;25.00;;;;;26.70;63.80;-19915.44;4918019;28;46151;-83
2023/05/13 11:13:15;;;;;;;;;32.00;29.00;;;;;26.82;59.47;-19918.63;4911740;28;45459;-84
2023/05/13 11:15:50;;;;;;;;;31.67;26.33;;;;;26.97;60.45;-19922.44;4919457;28;45888;-83
2023/05/13 11:18:51;;;;;;;;;26.33;23.67;;;;;27.22;61.47;-19928.91;4976531;22;45570;-83
2023/05/13 11:21:16;;;;;;;;;23.00;23.00;;;;;27.54;60.24;-19937.09;5007384;28;46331;-84
2023/05/13 11:24:04;;;;;;;;;24.00;21.67;;;;;27.81;57.86;-19943.97;5008516;28;45542;-84
2023/05/13 11:26:57;;;;;;;;;30.00;26.67;;;;;28.02;58.01;-19949.50;4995635;28;45793;-85
2023/05/13 11:29:34;;;;;;;;;25.33;24.00;;;;;28.11;57.53;-19951.88;5010686;28;45621;-84
2023/05/13 11:32:01;;;;;;;;;22.00;20.33;;;;;28.11;56.60;-19951.75;5010387;28;46203;-83
2023/05/13 11:34:28;;;;;;;;;23.67;21.00;;;;;28.04;56.78;-19950.03;5013932;28;45473;-84
2023/05/13 11:40:29;;;;;;;;;27.33;23.00;;;;;27.95;57.38;-19947.66;5013163;22;45540;-83
2023/05/13 11:42:54;;;;;;;;;26.00;23.00;;;;;28.34;56.59;-19957.81;4972313;28;45719;-87
2023/05/13 11:45:22;;;;;;;;;29.33;23.33;;;;;28.40;56.31;-19959.41;4964138;28;45563;-83
2023/05/13 11:47:49;;;;;;;;;24.67;24.67;;;;;28.50;55.68;-19961.78;4975654;28;46009;-82
2023/05/13 11:50:31;;;;;;;;;26.00;23.00;;;;;28.58;55.98;-19963.88;4978205;28;45935;-86
2023/05/13 11:52:58;;;;;;;;;24.67;21.00;;;;;28.67;54.10;-19966.13;4976750;28;46218;-86
2023/05/13 11:55:33;;;;;;;;;18.33;18.33;;;;;28.49;53.35;-19961.66;4973575;28;45675;-85
2023/05/13 11:57:59;;;;;;;;;21.67;19.67;;;;;28.72;53.15;-19967.56;4974130;28;45483;-86
2023/05/13 12:00:28;;;;;;;;;20.67;19.00;;;;;28.70;53.46;-19967.03;4971299;28;45381;-84
2023/05/13 12:02:57;;;;;;;;;18.67;18.67;;;;;28.41;52.86;-19959.66;4989483;28;48142;-86
2023/05/13 12:05:23;;;;;;;;;21.00;19.67;;;;;28.64;52.92;-19965.34;4980214;28;45524;-85
2023/05/13 12:07:49;;;;;;;;;23.00;21.67;;;;;28.63;52.80;-19965.19;4979038;28;45404;-84
2023/05/13 12:10:15;;;;;;;;;22.67;20.00;;;;;28.64;52.72;-19965.34;4982644;28;45522;-86
2023/05/13 12:12:43;;;;;;;;;26.33;22.00;;;;;28.60;53.08;-19964.53;4982299;28;47059;-86
2023/05/13 12:15:13;;;;;;;;;19.33;19.33;;;;;28.52;52.36;-19962.31;4978806;28;45448;-86
2023/05/13 12:17:39;;;;;;;;;23.33;20.00;;;;;28.69;52.39;-19966.66;4978367;28;45581;-87
2023/05/13 12:20:05;;;;;;;;;15.00;15.00;;;;;28.69;52.66;-19966.66;4980093;28;45502;-86
2023/05/13 12:22:31;;;;;;;;;22.67;21.67;;;;;28.53;52.64;-19962.69;4978620;28;47126;-86
2023/05/13 12:24:59;;;;;;;;;17.67;15.00;;;;;28.34;52.32;-19957.81;4978372;28;45452;-87
2023/05/13 12:27:25;;;;;;;;;15.67;12.67;;;;;28.54;51.96;-19962.84;4981900;28;45383;-87
2023/05/13 12:29:54;;;;;;;;;17.67;15.33;;;;;28.42;51.32;-19959.94;4998518;28;45371;-87
2023/05/13 12:32:20;;;;;;;;;15.00;13.75;;;;;28.34;51.08;-19957.69;4983784;28;45708;-88
2023/05/13 12:34:49;;;;;;;;;15.67;11.00;;;;;27.90;51.54;-19946.34;4978430;28;45470;-87
2023/05/13 12:37:14;;;;;;;;;15.00;14.00;;;;;27.88;52.04;-19945.94;4979220;28;45403;-87
2023/05/13 12:39:41;;;;;;;;;17.67;14.00;;;;;27.68;51.94;-19940.66;4980156;28;51701;-87
2023/05/13 12:42:13;;;;;;;;;13.33;11.33;;;;;27.47;51.94;-19933.28;4988006;28;46202;-87
2023/05/13 12:44:43;;;;;;;;;18.00;15.00;;;;;27.10;52.26;-19923.75;4972112;28;45828;-87
2023/05/13 12:47:10;;;;;;;;;17.00;12.33;;;;;27.09;51.82;-19923.63;4984608;28;45512;-88
2023/05/13 12:49:50;;;;;;;;;13.00;12.00;;;;;27.00;52.55;-19921.13;4991331;28;45613;-88
2023/05/13 12:52:16;;;;;;;;;12.33;12.33;;;;;26.82;52.08;-19577.09;4982703;28;46375;-91
2023/05/13 12:54:41;;;;;;;;;12.00;12.00;;;;;26.06;51.87;-19557.81;4991397;28;45387;-90
2023/05/13 12:57:08;;;;;;;;;13.00;13.00;;;;;26.45;52.59;-19567.66;4960795;28;45482;-90
2023/05/13 12:59:33;;;;;;;;;15.00;12.67;;;;;26.16;52.55;-19560.41;4978299;28;45608;-90
2023/05/13 13:01:59;;;;;;;;;10.33;9.67;;;;;26.22;52.58;-19222.72;4976739;28;46853;-90
2023/05/13 13:04:24;;;;;;;;;9.00;9.00;;;;;25.96;53.08;-19216.25;4977863;28;45412;-90
2023/05/13 13:06:50;;;;;;;;;12.33;12.33;;;;;25.76;52.50;-19211.19;4982551;28;45446;-90
2023/05/13 13:09:15;;;;;;;;;11.33;10.67;;;;;25.63;52.76;-19208.00;4991956;28;45573;-92
2023/05/13 13:11:41;;;;;;;;;12.67;10.33;;;;;25.72;53.16;-19210.31;4977920;28;45643;-90
2023/05/13 13:14:07;;;;;;;;;12.67;10.00;;;;;25.65;52.93;-18869.69;4971918;28;45448;-90
2023/05/13 13:16:32;;;;;;;;;12.33;11.33;;;;;25.45;52.75;-18864.84;4977797;28;45415;-92
2023/05/13 13:18:59;;;;;;;;;10.67;10.67;;;;;25.51;52.58;-18866.22;4986705;28;45578;-90
2023/05/13 13:21:24;;;;;;;;;8.25;8.25;;;;;25.45;53.14;-18864.72;4977646;28;46097;-91
2023/05/13 13:23:50;;;;;;;;;9.00;9.00;;;;;25.23;52.51;-18520.75;4983302;28;45389;-92
2023/05/13 13:26:15;;;;;;;;;11.33;9.00;;;;;25.26;53.04;-18860.13;4977715;28;45443;-90
2023/05/13 13:28:41;;;;;;;;;11.67;11.67;;;;;24.77;53.32;-18509.81;4978211;28;45377;-91
2023/05/13 13:31:06;;;;;;;;;12.75;9.25;;;;;25.17;52.84;-18519.28;4975867;28;46615;-91
2023/05/13 13:33:32;;;;;;;;;10.00;10.00;;;;;24.74;52.56;-18170.44;4982636;28;45681;-91
2023/05/13 13:35:57;;;;;;;;;10.00;9.33;;;;;24.66;52.42;-18168.66;4991697;28;45431;-92
2023/05/13 13:38:23;;;;;;;;;12.00;9.00;;;;;24.56;52.27;-18166.28;4974870;28;45514;-92
2023/05/13 13:40:48;;;;;;;;;9.75;8.00;;;;;24.83;51.94;-17834.09;4976017;28;46174;-88
2023/05/13 13:43:13;;;;;;;;;10.75;8.00;;;;;25.10;51.25;-17840.00;4970583;28;45443;-91
2023/05/13 13:45:42;;;;;;;;;9.33;8.00;;;;;25.10;51.70;-17840.00;4976523;28;45392;-90
2023/05/13 13:51:32;;;;;;;;;7.00;7.00;;;;;25.00;51.57;-17499.19;4978798;28;45427;-89
2023/05/13 13:54:13;;;;;;;;;7.67;7.67;;;;;24.91;51.53;-17497.16;4978088;28;45561;-90
2023/05/13 13:56:38;;;;;;;;;9.00;8.00;;;;;24.68;51.34;-17491.94;4975575;28;45449;-88
2023/05/13 13:59:04;;;;;;;;;7.67;7.00;;;;;24.70;51.27;-17153.91;4982204;28;45511;-89
2023/05/13 14:01:30;;;;;;;;;6.00;6.00;;;;;24.67;50.37;-16814.63;4986902;28;45934;-87
2023/05/13 14:04:15;;;;;;;;;7.00;6.33;;;;;24.97;50.76;-16821.00;4983857;28;45451;-87
2023/05/13 14:06:41;;;;;;;;;8.00;6.33;;;;;24.61;49.92;-16474.72;4994698;28;45562;-87
2023/05/13 14:09:08;;;;;;;;;4.67;4.67;;;;;24.70;49.88;-16137.81;4982677;28;45775;-86
2023/05/13 14:11:34;;;;;;;;;9.00;7.33;;;;;24.84;49.56;-15801.91;4976730;28;45624;-86
2023/05/13 14:13:59;;;;;;;;;6.00;6.00;;;;;24.76;48.92;-15122.72;4971774;28;45558;-86
2023/05/13 14:16:25;;;;;;;;;6.33;6.33;;;;;24.60;48.62;-14103.44;4978858;28;45364;-86
2023/05/13 14:18:50;;;;;;;;;6.67;6.00;;;;;24.71;49.41;-14444.22;4980827;28;46704;-86
2023/05/13 14:21:16;;;;;;;;;7.00;7.00;;;;;24.64;48.81;-14104.13;4988188;28;51951;-85
2023/05/13 14:23:42;;;;;;;;;6.00;6.00;;;;;24.58;49.49;-13764.34;4983230;28;45431;-85
2023/05/13 14:26:08;;;;;;;;;7.00;6.00;;;;;24.40;49.64;-14100.09;4994659;28;45917;-83
2023/05/13 14:28:33;;;;;;;;;5.00;5.00;;;;;24.48;49.72;-14101.47;4982546;28;45743;-83
2023/05/13 14:30:59;;;;;;;;;7.33;7.33;;;;;24.45;49.48;-13762.19;4982829;28;46504;-83
2023/05/13 14:33:24;;;;;;;;;9.00;8.00;;;;;24.40;49.47;-14100.19;4982720;28;45820;-83
2023/05/13 14:35:50;;;;;;;;;11.33;7.00;;;;;24.34;50.22;-14099.13;4981068;28;45617;-83
2023/05/13 14:38:15;;;;;;;;;10.33;9.00;;;;;24.28;49.82;-14098.09;4980491;28;45622;-82
2023/05/13 14:40:41;;;;;;;;;8.33;8.33;;;;;24.21;50.44;-14096.91;4992807;28;45694;-83
2023/05/13 14:43:06;;;;;;;;;11.50;8.50;;;;;24.20;50.22;-13758.09;4983010;28;46370;-83
2023/05/13 14:45:31;;;;;;;;;9.00;8.00;;;;;24.03;50.21;-13755.34;4967772;28;45516;-83
2023/05/13 14:47:57;;;;;;;;;8.33;7.00;;;;;23.99;49.93;-13416.13;4977611;28;45642;-83
2023/05/13 14:50:22;;;;;;;;;8.00;6.33;;;;;24.09;49.98;-13417.75;4982358;28;56955;-83
2023/05/13 14:52:47;;;;;;;;;9.00;8.00;;;;;24.13;49.65;-13418.31;4995038;28;45609;-84
2023/05/13 14:55:13;;;;;;;;;6.00;6.00;;;;;23.95;49.99;-13077.00;4986099;28;46092;-83
2023/05/13 14:57:38;;;;;;;;;6.00;6.00;;;;;23.90;49.96;-13076.16;4989879;28;45451;-83
2023/05/13 15:00:04;;;;;;;;;8.00;8.00;;;;;23.94;49.42;-12738.19;4987921;28;54960;-83
2023/05/13 15:04:55;;;;;;;;;6.67;6.33;;;;;23.88;49.44;-12398.72;4993287;22;67582;-83
2023/05/13 15:07:20;;;;;;;;;8.33;7.00;;;;;23.91;49.65;-12399.22;4993396;28;45432;-83
2023/05/13 15:09:45;;;;;;;;;8.67;8.33;;;;;23.89;49.63;-12398.88;4983791;28;45973;-83
2023/05/13 15:12:11;;;;;;;;;7.00;7.00;;;;;23.83;49.85;-12398.06;4980723;28;45701;-84
2023/05/13 15:14:40;;;;;;;;;7.67;7.67;;;;;23.38;50.16;-12391.69;4978557;28;45964;-84
2023/05/13 15:17:09;;;;;;;;;9.33;8.33;;;;;23.07;50.58;-12387.25;4985083;28;45531;-83
2023/05/13 15:19:34;;;;;;;;;7.00;6.33;;;;;23.05;50.14;-12387.03;4979424;28;46455;-86
2023/05/13 15:22:00;;;;;;;;;8.67;8.67;;;;;23.75;50.57;-12396.91;4980821;28;45571;-85
2023/05/13 15:24:25;;;;;;;;;8.00;8.00;;;;;23.71;51.04;-12734.88;4991612;28;45435;-85
2023/05/13 15:26:50;;;;;;;;;7.67;7.67;;;;;23.46;50.68;-12731.19;4975024;28;46110;-85
2023/05/13 15:29:16;;;;;;;;;8.00;8.00;;;;;23.66;50.96;-12734.06;4975354;28;46886;-86
2023/05/13 15:31:41;;;;;;;;;7.33;7.33;;;;;23.47;51.22;-13069.69;4974333;28;45472;-86
2023/05/13 15:34:07;;;;;;;;;10.33;7.33;;;;;23.53;50.96;-13070.53;4975516;28;45551;-87
2023/05/13 15:36:33;;;;;;;;;11.33;8.33;;;;;23.37;51.21;-13068.13;4980092;28;45531;-90
2023/05/13 15:38:59;;;;;;;;;9.33;8.67;;;;;23.33;51.22;-13067.50;4990411;28;46233;-92